sensor_id;sensor_type;location;lat;lon;timestamp;pressure;altitude;pressure_sealevel;temperature;humidity
20368;BME280;10343;52.402;9.796;2023-04-26T00:02:15;101020.41;;;15.22;37.05
20368;BME280;10343;52.402;9.796;2023-04-26T00:04:44;101022.31;;;15.90;36.00
20368;BME280;10343;52.402;9.796;2023-04-26T00:07:13;101026.75;;;16.11;35.92
20368;BME280;10343;52.402;9.796;2023-04-26T00:09:41;101021.25;;;15.23;37.29
20368;BME280;10343;52.402;9.796;2023-04-26T00:12:10;101012.22;;;16.19;35.16
20368;BME280;10343;52.402;9.796;2023-04-26T00:14:39;101021.84;;;15.55;36.78
20368;BME280;10343;52.402;9.796;2023-04-26T00:17:08;101021.06;;;15.75;36.09
20368;BME280;10343;52.402;9.796;2023-04-26T00:19:36;101022.19;;;15.69;35.79
20368;BME280;10343;52.402;9.796;2023-04-26T00:22:05;101013.56;;;15.39;36.38
20368;BME280;10343;52.402;9.796;2023-04-26T00:24:34;101004.91;;;15.78;35.99
20368;BME280;10343;52.402;9.796;2023-04-26T00:27:02;101016.88;;;14.97;37.53
20368;BME280;10343;52.402;9.796;2023-04-26T00:29:34;101013.38;;;15.89;35.98
20368;BME280;10343;52.402;9.796;2023-04-26T00:32:02;101011.88;;;15.36;36.61
20368;BME280;10343;52.402;9.796;2023-04-26T00:34:33;101019.75;;;15.16;36.94
20368;BME280;10343;52.402;9.796;2023-04-26T00:37:01;101025.09;;;15.39;36.75
20368;BME280;10343;52.402;9.796;2023-04-26T00:39:29;101016.34;;;15.59;36.67
20368;BME280;10343;52.402;9.796;2023-04-26T00:41:57;101016.28;;;15.37;36.49
20368;BME280;10343;52.402;9.796;2023-04-26T00:44:25;101021.56;;;14.90;37.93
20368;BME280;10343;52.402;9.796;2023-04-26T00:46:53;101016.09;;;15.66;36.77
20368;BME280;10343;52.402;9.796;2023-04-26T00:49:23;101022.16;;;14.98;37.55
20368;BME280;10343;52.402;9.796;2023-04-26T00:51:52;101025.81;;;15.21;37.21
20368;BME280;10343;52.402;9.796;2023-04-26T00:54:21;101019.88;;;15.13;36.97
20368;BME280;10343;52.402;9.796;2023-04-26T00:56:49;101023.38;;;14.89;37.55
20368;BME280;10343;52.402;9.796;2023-04-26T00:59:19;101025.22;;;15.36;37.08
20368;BME280;10343;52.402;9.796;2023-04-26T01:01:47;101023.72;;;15.29;36.71
20368;BME280;10343;52.402;9.796;2023-04-26T01:04:16;101025.94;;;14.67;37.69
20368;BME280;10343;52.402;9.796;2023-04-26T01:06:44;101022.03;;;15.03;37.44
20368;BME280;10343;52.402;9.796;2023-04-26T01:09:14;101033.41;;;14.02;38.71
20368;BME280;10343;52.402;9.796;2023-04-26T01:11:43;101029.66;;;14.61;38.10
20368;BME280;10343;52.402;9.796;2023-04-26T01:14:13;101043.25;;;14.27;38.59
20368;BME280;10343;52.402;9.796;2023-04-26T01:16:42;101036.38;;;14.20;38.40
20368;BME280;10343;52.402;9.796;2023-04-26T01:19:13;101032.19;;;14.39;38.45
20368;BME280;10343;52.402;9.796;2023-04-26T01:21:44;101037.31;;;14.46;38.15
20368;BME280;10343;52.402;9.796;2023-04-26T01:24:14;101039.00;;;14.75;37.57
20368;BME280;10343;52.402;9.796;2023-04-26T01:26:42;101030.28;;;14.43;38.27
20368;BME280;10343;52.402;9.796;2023-04-26T01:29:14;101037.66;;;14.08;38.77
20368;BME280;10343;52.402;9.796;2023-04-26T01:31:42;101036.75;;;14.07;39.15
20368;BME280;10343;52.402;9.796;2023-04-26T01:34:10;101037.53;;;14.66;37.86
20368;BME280;10343;52.402;9.796;2023-04-26T01:36:39;101044.97;;;14.28;38.32
20368;BME280;10343;52.402;9.796;2023-04-26T01:39:07;101038.53;;;14.62;38.10
20368;BME280;10343;52.402;9.796;2023-04-26T01:41:36;101039.16;;;14.43;38.18
20368;BME280;10343;52.402;9.796;2023-04-26T01:44:04;101045.81;;;14.84;37.54
20368;BME280;10343;52.402;9.796;2023-04-26T01:46:32;101052.22;;;14.51;37.88
20368;BME280;10343;52.402;9.796;2023-04-26T01:49:00;101041.09;;;14.92;37.58
20368;BME280;10343;52.402;9.796;2023-04-26T01:51:28;101046.63;;;14.59;38.18
20368;BME280;10343;52.402;9.796;2023-04-26T01:53:57;101049.19;;;14.64;38.02
20368;BME280;10343;52.402;9.796;2023-04-26T01:56:25;101055.66;;;14.28;38.52
20368;BME280;10343;52.402;9.796;2023-04-26T01:58:55;101046.06;;;14.22;38.05
20368;BME280;10343;52.402;9.796;2023-04-26T02:01:23;101050.25;;;14.31;37.59
20368;BME280;10343;52.402;9.796;2023-04-26T02:03:51;101047.75;;;13.98;39.00
20368;BME280;10343;52.402;9.796;2023-04-26T02:06:19;101047.13;;;14.45;37.92
20368;BME280;10343;52.402;9.796;2023-04-26T02:08:47;101053.56;;;14.38;38.02
20368;BME280;10343;52.402;9.796;2023-04-26T02:11:15;101051.31;;;13.97;38.60
20368;BME280;10343;52.402;9.796;2023-04-26T02:13:43;101050.78;;;13.86;38.97
20368;BME280;10343;52.402;9.796;2023-04-26T02:16:13;101049.56;;;13.68;39.48
20368;BME280;10343;52.402;9.796;2023-04-26T02:18:44;101035.91;;;14.60;37.81
20368;BME280;10343;52.402;9.796;2023-04-26T02:21:15;101039.69;;;14.00;39.14
20368;BME280;10343;52.402;9.796;2023-04-26T02:23:43;101035.03;;;14.60;37.71
20368;BME280;10343;52.402;9.796;2023-04-26T02:26:11;101046.34;;;14.41;38.24
20368;BME280;10343;52.402;9.796;2023-04-26T02:28:42;101047.28;;;14.67;37.70
20368;BME280;10343;52.402;9.796;2023-04-26T02:31:13;101051.09;;;14.32;38.13
20368;BME280;10343;52.402;9.796;2023-04-26T02:33:41;101049.50;;;14.53;37.83
20368;BME280;10343;52.402;9.796;2023-04-26T02:36:11;101047.81;;;14.23;38.30
20368;BME280;10343;52.402;9.796;2023-04-26T02:38:39;101048.13;;;14.94;36.73
20368;BME280;10343;52.402;9.796;2023-04-26T02:41:07;101059.91;;;14.34;38.43
20368;BME280;10343;52.402;9.796;2023-04-26T02:43:35;101058.41;;;14.52;37.67
20368;BME280;10343;52.402;9.796;2023-04-26T02:46:06;101046.94;;;14.76;37.74
20368;BME280;10343;52.402;9.796;2023-04-26T02:48:35;101056.41;;;13.76;39.19
20368;BME280;10343;52.402;9.796;2023-04-26T02:51:04;101052.16;;;14.53;38.03
20368;BME280;10343;52.402;9.796;2023-04-26T02:53:32;101047.34;;;14.10;38.40
20368;BME280;10343;52.402;9.796;2023-04-26T02:56:00;101049.56;;;13.96;39.28
20368;BME280;10343;52.402;9.796;2023-04-26T02:58:29;101047.03;;;14.20;38.76
20368;BME280;10343;52.402;9.796;2023-04-26T03:00:57;101046.94;;;14.76;37.47
20368;BME280;10343;52.402;9.796;2023-04-26T03:03:27;101041.69;;;14.20;38.43
20368;BME280;10343;52.402;9.796;2023-04-26T03:05:58;101044.72;;;13.81;39.17
20368;BME280;10343;52.402;9.796;2023-04-26T03:08:27;101046.97;;;14.23;38.84
20368;BME280;10343;52.402;9.796;2023-04-26T03:10:55;101049.03;;;13.55;39.62
20368;BME280;10343;52.402;9.796;2023-04-26T03:13:23;101049.25;;;14.34;38.87
20368;BME280;10343;52.402;9.796;2023-04-26T03:15:53;101049.47;;;13.99;39.30
20368;BME280;10343;52.402;9.796;2023-04-26T03:18:21;101040.75;;;13.94;39.04
20368;BME280;10343;52.402;9.796;2023-04-26T03:20:51;101049.00;;;14.68;38.17
20368;BME280;10343;52.402;9.796;2023-04-26T03:23:20;101058.19;;;14.33;38.48
20368;BME280;10343;52.402;9.796;2023-04-26T03:25:51;101052.69;;;14.37;38.29
20368;BME280;10343;52.402;9.796;2023-04-26T03:28:19;101054.09;;;13.64;39.44
20368;BME280;10343;52.402;9.796;2023-04-26T03:30:47;101049.72;;;14.47;38.35
20368;BME280;10343;52.402;9.796;2023-04-26T03:33:16;101048.72;;;13.66;39.48
20368;BME280;10343;52.402;9.796;2023-04-26T03:35:44;101042.31;;;13.71;39.49
20368;BME280;10343;52.402;9.796;2023-04-26T03:38:12;101048.22;;;14.11;39.00
20368;BME280;10343;52.402;9.796;2023-04-26T03:40:41;101036.75;;;14.07;39.08
20368;BME280;10343;52.402;9.796;2023-04-26T03:43:09;101038.09;;;13.94;39.20
20368;BME280;10343;52.402;9.796;2023-04-26T03:45:37;101034.66;;;14.19;38.91
20368;BME280;10343;52.402;9.796;2023-04-26T03:48:06;101042.59;;;14.99;37.72
20368;BME280;10343;52.402;9.796;2023-04-26T03:50:34;101049.13;;;14.10;38.65
20368;BME280;10343;52.402;9.796;2023-04-26T03:53:02;101049.19;;;14.08;38.97
20368;BME280;10343;52.402;9.796;2023-04-26T03:55:30;101054.22;;;14.18;39.00
20368;BME280;10343;52.402;9.796;2023-04-26T03:58:00;101051.03;;;14.06;39.19
20368;BME280;10343;52.402;9.796;2023-04-26T04:00:33;101051.50;;;13.91;39.47
20368;BME280;10343;52.402;9.796;2023-04-26T04:03:01;101044.19;;;13.69;39.63
20368;BME280;10343;52.402;9.796;2023-04-26T04:05:30;101047.63;;;14.01;39.15
20368;BME280;10343;52.402;9.796;2023-04-26T04:07:58;101043.78;;;14.10;39.23
20368;BME280;10343;52.402;9.796;2023-04-26T04:10:26;101046.22;;;14.18;39.20
20368;BME280;10343;52.402;9.796;2023-04-26T04:12:54;101049.28;;;14.05;39.24
20368;BME280;10343;52.402;9.796;2023-04-26T04:15:24;101057.31;;;13.75;39.58
20368;BME280;10343;52.402;9.796;2023-04-26T04:17:54;101056.22;;;13.53;39.77
20368;BME280;10343;52.402;9.796;2023-04-26T04:20:22;101050.16;;;14.59;38.64
20368;BME280;10343;52.402;9.796;2023-04-26T04:22:52;101043.13;;;15.58;36.57
20368;BME280;10343;52.402;9.796;2023-04-26T04:25:20;101046.63;;;14.86;37.81
20368;BME280;10343;52.402;9.796;2023-04-26T04:27:51;101053.03;;;15.54;36.81
20368;BME280;10343;52.402;9.796;2023-04-26T04:30:20;101056.47;;;14.57;37.81
20368;BME280;10343;52.402;9.796;2023-04-26T04:32:49;101060.31;;;15.02;37.77
20368;BME280;10343;52.402;9.796;2023-04-26T04:35:18;101053.41;;;14.96;37.46
20368;BME280;10343;52.402;9.796;2023-04-26T04:37:46;101061.00;;;15.32;37.15
20368;BME280;10343;52.402;9.796;2023-04-26T04:40:15;101068.03;;;15.09;37.52
20368;BME280;10343;52.402;9.796;2023-04-26T04:42:45;101068.88;;;15.59;36.70
20368;BME280;10343;52.402;9.796;2023-04-26T04:45:15;101061.53;;;14.66;38.30
20368;BME280;10343;52.402;9.796;2023-04-26T04:47:45;101065.22;;;14.62;38.33
20368;BME280;10343;52.402;9.796;2023-04-26T04:50:14;101066.09;;;15.38;36.90
20368;BME280;10343;52.402;9.796;2023-04-26T04:52:42;101069.66;;;15.62;36.78
20368;BME280;10343;52.402;9.796;2023-04-26T04:55:10;101065.63;;;15.51;36.56
20368;BME280;10343;52.402;9.796;2023-04-26T04:57:38;101066.56;;;15.26;37.25
20368;BME280;10343;52.402;9.796;2023-04-26T05:00:10;101067.31;;;15.77;36.51
20368;BME280;10343;52.402;9.796;2023-04-26T05:02:46;101069.47;;;15.43;36.49
20368;BME280;10343;52.402;9.796;2023-04-26T05:05:16;101075.50;;;15.00;37.12
20368;BME280;10343;52.402;9.796;2023-04-26T05:07:44;101072.88;;;15.23;37.17
20368;BME280;10343;52.402;9.796;2023-04-26T05:10:14;101079.38;;;15.41;36.74
20368;BME280;10343;52.402;9.796;2023-04-26T05:12:42;101069.94;;;14.81;37.26
20368;BME280;10343;52.402;9.796;2023-04-26T05:15:10;101077.44;;;14.69;37.50
20368;BME280;10343;52.402;9.796;2023-04-26T05:17:38;101077.47;;;15.20;37.45
20368;BME280;10343;52.402;9.796;2023-04-26T05:20:12;101078.13;;;15.26;37.15
20368;BME280;10343;52.402;9.796;2023-04-26T05:22:43;101080.06;;;15.94;36.00
20368;BME280;10343;52.402;9.796;2023-04-26T05:25:11;101080.41;;;15.37;37.24
20368;BME280;10343;52.402;9.796;2023-04-26T05:27:41;101085.75;;;15.12;37.19
20368;BME280;10343;52.402;9.796;2023-04-26T05:30:19;101090.44;;;15.31;37.10
20368;BME280;10343;52.402;9.796;2023-04-26T05:33:14;101086.34;;;15.69;36.80
20368;BME280;10343;52.402;9.796;2023-04-26T05:35:48;101091.03;;;15.14;37.36
20368;BME280;10343;52.402;9.796;2023-04-26T05:38:17;101096.00;;;16.19;35.55
20368;BME280;10343;52.402;9.796;2023-04-26T05:40:45;101087.66;;;15.83;36.25
20368;BME280;10343;52.402;9.796;2023-04-26T05:43:14;101084.25;;;16.23;35.24
20368;BME280;10343;52.402;9.796;2023-04-26T05:45:49;101095.72;;;16.03;35.56
20368;BME280;10343;52.402;9.796;2023-04-26T05:48:19;101089.38;;;15.84;36.01
20368;BME280;10343;52.402;9.796;2023-04-26T05:50:47;101096.00;;;15.97;35.84
20368;BME280;10343;52.402;9.796;2023-04-26T05:53:16;101099.03;;;15.14;36.73
20368;BME280;10343;52.402;9.796;2023-04-26T05:55:44;101096.69;;;15.29;36.90
20368;BME280;10343;52.402;9.796;2023-04-26T05:58:13;101097.69;;;15.51;36.47
20368;BME280;10343;52.402;9.796;2023-04-26T06:00:42;101093.97;;;15.31;37.23
20368;BME280;10343;52.402;9.796;2023-04-26T06:03:10;101095.13;;;16.63;34.95
20368;BME280;10343;52.402;9.796;2023-04-26T06:05:39;101092.72;;;16.35;35.34
20368;BME280;10343;52.402;9.796;2023-04-26T06:08:08;101093.25;;;15.99;35.85
20368;BME280;10343;52.402;9.796;2023-04-26T06:10:37;101103.84;;;15.04;37.02
20368;BME280;10343;52.402;9.796;2023-04-26T06:13:05;101100.38;;;16.22;35.71
20368;BME280;10343;52.402;9.796;2023-04-26T06:15:35;101097.25;;;16.10;35.86
20368;BME280;10343;52.402;9.796;2023-04-26T06:18:04;101101.72;;;16.32;35.48
20368;BME280;10343;52.402;9.796;2023-04-26T06:20:32;101106.56;;;16.44;35.22
20368;BME280;10343;52.402;9.796;2023-04-26T06:23:01;101107.81;;;16.58;35.22
20368;BME280;10343;52.402;9.796;2023-04-26T06:25:29;101103.88;;;16.67;34.89
20368;BME280;10343;52.402;9.796;2023-04-26T06:27:58;101106.28;;;16.52;35.24
20368;BME280;10343;52.402;9.796;2023-04-26T06:30:26;101111.66;;;16.73;34.79
20368;BME280;10343;52.402;9.796;2023-04-26T06:32:54;101107.06;;;16.54;35.31
20368;BME280;10343;52.402;9.796;2023-04-26T06:35:25;101107.50;;;17.69;33.34
20368;BME280;10343;52.402;9.796;2023-04-26T06:37:53;101114.25;;;16.96;34.35
20368;BME280;10343;52.402;9.796;2023-04-26T06:40:21;101113.16;;;17.81;33.38
20368;BME280;10343;52.402;9.796;2023-04-26T06:42:49;101119.75;;;17.74;32.79
20368;BME280;10343;52.402;9.796;2023-04-26T06:45:37;101102.41;;;18.02;32.51
20368;BME280;10343;52.402;9.796;2023-04-26T06:48:09;101108.69;;;18.01;32.65
20368;BME280;10343;52.402;9.796;2023-04-26T06:50:38;101115.63;;;17.07;33.92
20368;BME280;10343;52.402;9.796;2023-04-26T06:53:06;101118.28;;;16.64;34.74
20368;BME280;10343;52.402;9.796;2023-04-26T06:55:34;101109.31;;;16.86;34.34
20368;BME280;10343;52.402;9.796;2023-04-26T06:58:02;101117.72;;;16.56;34.67
20368;BME280;10343;52.402;9.796;2023-04-26T07:00:30;101119.41;;;17.22;33.93
20368;BME280;10343;52.402;9.796;2023-04-26T07:02:59;101116.47;;;18.07;32.59
20368;BME280;10343;52.402;9.796;2023-04-26T07:05:27;101114.19;;;18.36;32.36
20368;BME280;10343;52.402;9.796;2023-04-26T07:07:55;101125.25;;;18.65;31.77
20368;BME280;10343;52.402;9.796;2023-04-26T07:10:23;101128.75;;;16.26;34.72
20368;BME280;10343;52.402;9.796;2023-04-26T07:12:51;101127.41;;;15.43;36.73
20368;BME280;10343;52.402;9.796;2023-04-26T07:15:20;101116.69;;;17.63;33.62
20368;BME280;10343;52.402;9.796;2023-04-26T07:17:48;101125.22;;;17.92;32.66
20368;BME280;10343;52.402;9.796;2023-04-26T07:20:17;101139.59;;;16.88;34.63
20368;BME280;10343;52.402;9.796;2023-04-26T07:22:48;101135.22;;;16.42;35.45
20368;BME280;10343;52.402;9.796;2023-04-26T07:25:16;101126.25;;;17.49;33.49
20368;BME280;10343;52.402;9.796;2023-04-26T07:27:44;101125.81;;;16.54;34.60
20368;BME280;10343;52.402;9.796;2023-04-26T07:30:12;101132.59;;;16.63;34.81
20368;BME280;10343;52.402;9.796;2023-04-26T07:32:40;101121.16;;;17.43;33.77
20368;BME280;10343;52.402;9.796;2023-04-26T07:35:09;101123.34;;;18.32;32.68
20368;BME280;10343;52.402;9.796;2023-04-26T07:37:43;101114.16;;;17.60;33.10
20368;BME280;10343;52.402;9.796;2023-04-26T07:40:12;101135.38;;;18.04;32.55
20368;BME280;10343;52.402;9.796;2023-04-26T07:42:40;101128.38;;;17.81;32.59
20368;BME280;10343;52.402;9.796;2023-04-26T07:45:09;101136.47;;;16.34;34.64
20368;BME280;10343;52.402;9.796;2023-04-26T07:47:37;101126.53;;;18.02;32.71
20368;BME280;10343;52.402;9.796;2023-04-26T07:50:06;101137.78;;;17.10;33.64
20368;BME280;10343;52.402;9.796;2023-04-26T07:52:34;101132.28;;;15.81;35.36
20368;BME280;10343;52.402;9.796;2023-04-26T07:55:04;101127.44;;;18.39;31.98
20368;BME280;10343;52.402;9.796;2023-04-26T07:57:32;101133.63;;;17.03;34.30
20368;BME280;10343;52.402;9.796;2023-04-26T08:00:00;101135.53;;;18.01;32.69
20368;BME280;10343;52.402;9.796;2023-04-26T08:02:37;101127.03;;;18.83;31.65
20368;BME280;10343;52.402;9.796;2023-04-26T08:05:11;101129.09;;;18.78;31.25
20368;BME280;10343;52.402;9.796;2023-04-26T08:07:40;101125.44;;;18.62;31.11
20368;BME280;10343;52.402;9.796;2023-04-26T08:10:10;101128.38;;;17.62;32.12
20368;BME280;10343;52.402;9.796;2023-04-26T08:12:38;101133.06;;;18.15;31.36
20368;BME280;10343;52.402;9.796;2023-04-26T08:15:07;101133.88;;;18.54;31.11
20368;BME280;10343;52.402;9.796;2023-04-26T08:17:35;101124.38;;;19.18;30.03
20368;BME280;10343;52.402;9.796;2023-04-26T08:20:03;101120.28;;;19.62;28.93
20368;BME280;10343;52.402;9.796;2023-04-26T08:22:32;101130.38;;;19.41;29.32
20368;BME280;10343;52.402;9.796;2023-04-26T08:25:00;101127.38;;;18.41;30.65
20368;BME280;10343;52.402;9.796;2023-04-26T08:27:31;101120.25;;;17.63;32.55
20368;BME280;10343;52.402;9.796;2023-04-26T08:30:00;101119.75;;;20.05;28.83
20368;BME280;10343;52.402;9.796;2023-04-26T08:32:28;101125.25;;;19.19;30.26
20368;BME280;10343;52.402;9.796;2023-04-26T08:34:56;101118.47;;;19.63;28.95
20368;BME280;10343;52.402;9.796;2023-04-26T08:37:24;101115.34;;;18.67;29.24
20368;BME280;10343;52.402;9.796;2023-04-26T08:39:54;101122.88;;;17.84;30.03
20368;BME280;10343;52.402;9.796;2023-04-26T08:42:25;101123.22;;;17.37;31.22
20368;BME280;10343;52.402;9.796;2023-04-26T08:44:59;101113.66;;;20.17;27.74
20368;BME280;10343;52.402;9.796;2023-04-26T08:47:42;101123.97;;;19.09;28.86
20368;BME280;10343;52.402;9.796;2023-04-26T08:50:12;101124.50;;;19.50;28.05
20368;BME280;10343;52.402;9.796;2023-04-26T08:52:41;101124.03;;;19.76;27.38
20368;BME280;10343;52.402;9.796;2023-04-26T08:55:10;101132.78;;;17.42;30.82
20368;BME280;10343;52.402;9.796;2023-04-26T08:57:38;101121.84;;;19.33;28.18
20368;BME280;10343;52.402;9.796;2023-04-26T09:00:10;101127.41;;;19.12;28.38
20368;BME280;10343;52.402;9.796;2023-04-26T09:02:39;101126.63;;;18.93;28.26
20368;BME280;10343;52.402;9.796;2023-04-26T09:05:09;101123.81;;;19.80;27.36
20368;BME280;10343;52.402;9.796;2023-04-26T09:07:40;101120.88;;;20.33;26.91
20368;BME280;10343;52.402;9.796;2023-04-26T09:10:10;101122.56;;;20.66;25.73
20368;BME280;10343;52.402;9.796;2023-04-26T09:12:39;101126.00;;;21.14;25.81
20368;BME280;10343;52.402;9.796;2023-04-26T09:15:09;101129.56;;;20.54;26.35
20368;BME280;10343;52.402;9.796;2023-04-26T09:17:38;101130.69;;;17.70;29.02
20368;BME280;10343;52.402;9.796;2023-04-26T09:20:25;101125.66;;;20.28;26.57
20368;BME280;10343;52.402;9.796;2023-04-26T09:23:03;101131.41;;;19.39;27.67
20368;BME280;10343;52.402;9.796;2023-04-26T09:25:31;101123.34;;;19.21;27.24
20368;BME280;10343;52.402;9.796;2023-04-26T09:28:00;101127.94;;;18.47;28.76
20368;BME280;10343;52.402;9.796;2023-04-26T09:30:37;101130.34;;;20.08;26.24
20368;BME280;10343;52.402;9.796;2023-04-26T09:33:06;101129.22;;;19.63;26.65
20368;BME280;10343;52.402;9.796;2023-04-26T09:35:36;101120.75;;;19.20;26.85
20368;BME280;10343;52.402;9.796;2023-04-26T09:38:06;101122.75;;;19.49;25.33
20368;BME280;10343;52.402;9.796;2023-04-26T09:40:41;101122.00;;;20.61;24.66
20368;BME280;10343;52.402;9.796;2023-04-26T09:43:10;101116.44;;;20.48;24.24
20368;BME280;10343;52.402;9.796;2023-04-26T09:45:47;101109.38;;;21.94;23.34
20368;BME280;10343;52.402;9.796;2023-04-26T09:48:18;101105.78;;;22.22;23.09
20368;BME280;10343;52.402;9.796;2023-04-26T09:50:49;101125.09;;;21.44;24.45
20368;BME280;10343;52.402;9.796;2023-04-26T09:53:28;101128.16;;;20.79;25.07
20368;BME280;10343;52.402;9.796;2023-04-26T09:56:05;101125.78;;;21.48;23.89
20368;BME280;10343;52.402;9.796;2023-04-26T09:58:34;101122.16;;;21.18;23.69
20368;BME280;10343;52.402;9.796;2023-04-26T10:01:06;101111.59;;;21.44;23.64
20368;BME280;10343;52.402;9.796;2023-04-26T10:03:34;101120.03;;;20.00;24.51
20368;BME280;10343;52.402;9.796;2023-04-26T10:06:04;101141.03;;;19.76;25.33
20368;BME280;10343;52.402;9.796;2023-04-26T10:08:32;101116.16;;;20.99;24.04
20368;BME280;10343;52.402;9.796;2023-04-26T10:11:02;101146.06;;;17.66;28.15
20368;BME280;10343;52.402;9.796;2023-04-26T10:13:31;101132.75;;;20.29;25.68
20368;BME280;10343;52.402;9.796;2023-04-26T10:15:59;101131.50;;;20.82;25.23
20368;BME280;10343;52.402;9.796;2023-04-26T10:18:30;101130.09;;;21.21;24.60
20368;BME280;10343;52.402;9.796;2023-04-26T10:21:02;101140.03;;;18.20;27.08
20368;BME280;10343;52.402;9.796;2023-04-26T10:23:36;101131.72;;;20.47;23.95
20368;BME280;10343;52.402;9.796;2023-04-26T10:26:05;101125.13;;;20.53;24.69
20368;BME280;10343;52.402;9.796;2023-04-26T10:28:55;101109.53;;;21.78;23.13
20368;BME280;10343;52.402;9.796;2023-04-26T10:34:33;101127.44;;;20.75;25.04
20368;BME280;10343;52.402;9.796;2023-04-26T10:37:09;101118.53;;;19.95;26.67
20368;BME280;10343;52.402;9.796;2023-04-26T10:39:38;101134.84;;;20.56;26.33
20368;BME280;10343;52.402;9.796;2023-04-26T10:42:19;101122.28;;;20.40;25.80
20368;BME280;10343;52.402;9.796;2023-04-26T10:44:51;101124.03;;;21.47;25.05
20368;BME280;10343;52.402;9.796;2023-04-26T10:47:28;101123.53;;;20.81;25.37
20368;BME280;10343;52.402;9.796;2023-04-26T10:50:03;101123.22;;;20.39;26.24
20368;BME280;10343;52.402;9.796;2023-04-26T10:52:33;101130.53;;;20.69;25.80
20368;BME280;10343;52.402;9.796;2023-04-26T10:55:01;101115.72;;;21.07;25.28
20368;BME280;10343;52.402;9.796;2023-04-26T10:57:51;101116.66;;;21.65;23.47
20368;BME280;10343;52.402;9.796;2023-04-26T11:00:30;101117.66;;;19.94;24.89
20368;BME280;10343;52.402;9.796;2023-04-26T11:03:03;101118.16;;;21.40;23.26
20368;BME280;10343;52.402;9.796;2023-04-26T11:05:38;101112.94;;;21.51;22.57
20368;BME280;10343;52.402;9.796;2023-04-26T11:08:15;101114.84;;;20.60;23.55
20368;BME280;10343;52.402;9.796;2023-04-26T11:10:48;101104.72;;;21.83;21.92
20368;BME280;10343;52.402;9.796;2023-04-26T11:13:17;101111.66;;;20.69;23.39
20368;BME280;10343;52.402;9.796;2023-04-26T11:15:46;101111.03;;;22.11;21.60
20368;BME280;10343;52.402;9.796;2023-04-26T11:18:18;101104.44;;;22.57;21.31
20368;BME280;10343;52.402;9.796;2023-04-26T11:20:48;101125.41;;;20.48;23.37
20368;BME280;10343;52.402;9.796;2023-04-26T11:23:17;101118.50;;;22.35;21.65
20368;BME280;10343;52.402;9.796;2023-04-26T11:25:46;101127.38;;;19.63;24.56
20368;BME280;10343;52.402;9.796;2023-04-26T11:28:14;101098.91;;;22.04;21.96
20368;BME280;10343;52.402;9.796;2023-04-26T11:30:42;101104.91;;;22.36;21.16
20368;BME280;10343;52.402;9.796;2023-04-26T11:33:16;101102.44;;;22.46;21.56
20368;BME280;10343;52.402;9.796;2023-04-26T11:35:45;101100.91;;;22.69;21.13
20368;BME280;10343;52.402;9.796;2023-04-26T11:38:15;101101.59;;;21.46;22.49
20368;BME280;10343;52.402;9.796;2023-04-26T11:40:43;101102.19;;;22.64;21.52
20368;BME280;10343;52.402;9.796;2023-04-26T11:43:12;101102.63;;;21.15;22.99
20368;BME280;10343;52.402;9.796;2023-04-26T11:45:41;101116.03;;;21.31;23.35
20368;BME280;10343;52.402;9.796;2023-04-26T11:48:11;101108.75;;;21.62;22.93
20368;BME280;10343;52.402;9.796;2023-04-26T11:50:40;101099.94;;;22.43;22.14
20368;BME280;10343;52.402;9.796;2023-04-26T11:53:08;101107.84;;;22.86;21.72
20368;BME280;10343;52.402;9.796;2023-04-26T11:55:38;101106.94;;;23.00;20.41
20368;BME280;10343;52.402;9.796;2023-04-26T11:58:12;101106.44;;;21.70;20.52
20368;BME280;10343;52.402;9.796;2023-04-26T12:00:57;101103.88;;;22.52;20.31
20368;BME280;10343;52.402;9.796;2023-04-26T12:03:29;101100.75;;;23.88;19.05
20368;BME280;10343;52.402;9.796;2023-04-26T12:05:58;101103.94;;;22.37;21.34
20368;BME280;10343;52.402;9.796;2023-04-26T12:08:26;101097.06;;;21.90;21.79
20368;BME280;10343;52.402;9.796;2023-04-26T12:10:59;101109.19;;;22.94;21.17
20368;BME280;10343;52.402;9.796;2023-04-26T12:13:28;101107.84;;;22.46;21.48
20368;BME280;10343;52.402;9.796;2023-04-26T12:15:56;101105.56;;;23.72;20.54
20368;BME280;10343;52.402;9.796;2023-04-26T12:18:29;101104.44;;;22.15;21.41
20368;BME280;10343;52.402;9.796;2023-04-26T12:20:58;101101.59;;;22.99;21.37
20368;BME280;10343;52.402;9.796;2023-04-26T12:23:35;101114.97;;;21.19;22.25
20368;BME280;10343;52.402;9.796;2023-04-26T12:26:06;101112.25;;;22.34;20.50
20368;BME280;10343;52.402;9.796;2023-04-26T12:28:36;101097.91;;;22.87;20.61
20368;BME280;10343;52.402;9.796;2023-04-26T12:31:05;101109.81;;;21.00;22.30
20368;BME280;10343;52.402;9.796;2023-04-26T12:33:33;101115.56;;;20.47;22.88
20368;BME280;10343;52.402;9.796;2023-04-26T12:36:08;101113.56;;;21.42;22.21
20368;BME280;10343;52.402;9.796;2023-04-26T12:38:37;101112.25;;;20.42;23.30
20368;BME280;10343;52.402;9.796;2023-04-26T12:41:07;101109.31;;;21.96;22.04
20368;BME280;10343;52.402;9.796;2023-04-26T12:43:35;101105.59;;;22.80;21.49
20368;BME280;10343;52.402;9.796;2023-04-26T12:46:03;101109.25;;;22.25;21.82
20368;BME280;10343;52.402;9.796;2023-04-26T12:48:31;101115.00;;;21.91;22.61
20368;BME280;10343;52.402;9.796;2023-04-26T12:50:59;101107.84;;;22.46;21.77
20368;BME280;10343;52.402;9.796;2023-04-26T12:53:27;101109.03;;;23.22;21.03
20368;BME280;10343;52.402;9.796;2023-04-26T12:55:54;101107.72;;;22.75;20.97
20368;BME280;10343;52.402;9.796;2023-04-26T12:58:24;101108.25;;;22.26;21.26
20368;BME280;10343;52.402;9.796;2023-04-26T13:00:52;101116.63;;;21.50;22.19
20368;BME280;10343;52.402;9.796;2023-04-26T13:03:20;101123.00;;;20.74;22.88
20368;BME280;10343;52.402;9.796;2023-04-26T13:05:48;101112.81;;;21.54;21.96
20368;BME280;10343;52.402;9.796;2023-04-26T13:08:17;101119.81;;;21.86;22.04